Terminal Aerodrome Forecast
Issued by NWS Sterling, VA

Current Version | Previous Version | Graphics & Text | Print | Product List | Glossary On
Versions: 1 2 3 4 5 6 7 8 9 10 11 12
000
FTUS41 KLWX 231720
TAFMRB
TAF
KMRB 231720Z 2318/2418 29012G26KT P6SM OVC060
     FM240100 31008KT P6SM SCT070
     FM241400 30016G25KT P6SM FEW250=

USA.gov is the U.S. government's official web portal to all federal, state and local government web resources and services.